sensor_id;sensor_type;location;lat;lon;timestamp;pressure;altitude;pressure_sealevel;temperature;humidity
11114;BME280;5610;52.154;9.198;2024-01-16T00:02:18;99580.63;;;2.41;100.00
11114;BME280;5610;52.154;9.198;2024-01-16T00:05:04;99575.94;;;2.48;100.00
11114;BME280;5610;52.154;9.198;2024-01-16T00:07:49;99587.25;;;2.50;100.00
11114;BME280;5610;52.154;9.198;2024-01-16T00:10:34;99600.97;;;2.57;100.00
11114;BME280;5610;52.154;9.198;2024-01-16T00:13:19;99596.97;;;2.67;100.00
11114;BME280;5610;52.154;9.198;2024-01-16T00:16:06;99593.66;;;2.63;100.00
11114;BME280;5610;52.154;9.198;2024-01-16T00:18:51;99591.66;;;2.68;100.00
11114;BME280;5610;52.154;9.198;2024-01-16T00:21:38;99606.59;;;2.68;100.00
11114;BME280;5610;52.154;9.198;2024-01-16T00:24:23;99608.84;;;2.57;100.00
11114;BME280;5610;52.154;9.198;2024-01-16T00:27:09;99608.00;;;2.56;100.00
11114;BME280;5610;52.154;9.198;2024-01-16T00:29:54;99604.50;;;2.56;100.00
11114;BME280;5610;52.154;9.198;2024-01-16T00:32:40;99619.22;;;2.60;100.00
11114;BME280;5610;52.154;9.198;2024-01-16T00:35:26;99617.78;;;2.53;100.00
11114;BME280;5610;52.154;9.198;2024-01-16T00:38:11;99621.41;;;2.50;100.00
11114;BME280;5610;52.154;9.198;2024-01-16T00:40:57;99605.81;;;2.27;100.00
11114;BME280;5610;52.154;9.198;2024-01-16T00:43:43;99622.63;;;2.43;100.00
11114;BME280;5610;52.154;9.198;2024-01-16T00:46:28;99627.63;;;2.29;100.00
11114;BME280;5610;52.154;9.198;2024-01-16T00:49:15;99641.22;;;2.18;100.00
11114;BME280;5610;52.154;9.198;2024-01-16T00:52:00;99644.50;;;2.03;100.00
11114;BME280;5610;52.154;9.198;2024-01-16T00:54:45;99635.00;;;2.00;100.00
11114;BME280;5610;52.154;9.198;2024-01-16T00:57:31;99643.06;;;1.96;100.00
11114;BME280;5610;52.154;9.198;2024-01-16T01:00:17;99651.75;;;1.98;100.00
11114;BME280;5610;52.154;9.198;2024-01-16T01:03:02;99644.25;;;2.09;100.00
11114;BME280;5610;52.154;9.198;2024-01-16T01:05:50;99648.41;;;2.14;100.00
11114;BME280;5610;52.154;9.198;2024-01-16T01:08:35;99654.06;;;2.05;100.00
11114;BME280;5610;52.154;9.198;2024-01-16T01:11:20;99652.19;;;2.07;100.00
11114;BME280;5610;52.154;9.198;2024-01-16T01:14:06;99657.13;;;2.15;100.00
11114;BME280;5610;52.154;9.198;2024-01-16T01:16:51;99655.94;;;2.22;100.00
11114;BME280;5610;52.154;9.198;2024-01-16T01:19:37;99656.47;;;2.10;100.00
11114;BME280;5610;52.154;9.198;2024-01-16T01:22:24;99662.53;;;2.12;100.00
11114;BME280;5610;52.154;9.198;2024-01-16T01:25:10;99656.34;;;2.13;100.00
11114;BME280;5610;52.154;9.198;2024-01-16T01:27:56;99660.19;;;2.04;100.00
11114;BME280;5610;52.154;9.198;2024-01-16T01:30:41;99663.31;;;2.14;100.00
11114;BME280;5610;52.154;9.198;2024-01-16T01:33:26;99669.66;;;2.08;100.00
11114;BME280;5610;52.154;9.198;2024-01-16T01:36:12;99668.28;;;2.00;100.00
11114;BME280;5610;52.154;9.198;2024-01-16T01:38:58;99678.72;;;2.01;100.00
11114;BME280;5610;52.154;9.198;2024-01-16T01:41:44;99685.38;;;2.10;100.00
11114;BME280;5610;52.154;9.198;2024-01-16T01:44:29;99705.31;;;1.93;100.00
11114;BME280;5610;52.154;9.198;2024-01-16T01:47:14;99697.06;;;2.03;100.00
11114;BME280;5610;52.154;9.198;2024-01-16T01:50:01;99693.66;;;2.01;100.00
11114;BME280;5610;52.154;9.198;2024-01-16T01:52:47;99697.59;;;1.90;100.00
11114;BME280;5610;52.154;9.198;2024-01-16T01:55:34;99698.47;;;1.89;100.00
11114;BME280;5610;52.154;9.198;2024-01-16T01:58:20;99691.44;;;1.90;100.00
11114;BME280;5610;52.154;9.198;2024-01-16T02:01:05;99708.09;;;1.90;100.00
11114;BME280;5610;52.154;9.198;2024-01-16T02:03:52;99717.28;;;2.01;100.00
11114;BME280;5610;52.154;9.198;2024-01-16T02:06:41;99713.16;;;2.15;100.00
11114;BME280;5610;52.154;9.198;2024-01-16T02:09:26;99714.03;;;2.16;100.00
11114;BME280;5610;52.154;9.198;2024-01-16T02:12:12;99710.34;;;2.20;100.00
11114;BME280;5610;52.154;9.198;2024-01-16T02:14:58;99712.28;;;1.95;100.00
11114;BME280;5610;52.154;9.198;2024-01-16T02:17:43;99727.13;;;1.96;100.00
11114;BME280;5610;52.154;9.198;2024-01-16T02:20:29;99721.75;;;1.99;100.00
11114;BME280;5610;52.154;9.198;2024-01-16T02:23:15;99715.66;;;1.98;100.00
11114;BME280;5610;52.154;9.198;2024-01-16T02:26:02;99724.63;;;1.92;100.00
11114;BME280;5610;52.154;9.198;2024-01-16T02:28:48;99727.97;;;1.96;100.00
11114;BME280;5610;52.154;9.198;2024-01-16T02:31:33;99741.44;;;1.88;100.00
11114;BME280;5610;52.154;9.198;2024-01-16T02:34:18;99738.44;;;1.98;100.00
11114;BME280;5610;52.154;9.198;2024-01-16T02:37:04;99732.72;;;2.08;100.00
11114;BME280;5610;52.154;9.198;2024-01-16T02:39:49;99743.50;;;2.02;100.00
11114;BME280;5610;52.154;9.198;2024-01-16T02:42:35;99747.41;;;2.14;100.00
11114;BME280;5610;52.154;9.198;2024-01-16T02:45:21;99744.59;;;2.18;100.00
11114;BME280;5610;52.154;9.198;2024-01-16T02:48:06;99743.75;;;1.96;100.00
11114;BME280;5610;52.154;9.198;2024-01-16T02:50:52;99749.50;;;2.06;100.00
11114;BME280;5610;52.154;9.198;2024-01-16T02:53:37;99760.00;;;2.06;100.00
11114;BME280;5610;52.154;9.198;2024-01-16T02:56:22;99761.72;;;2.07;100.00
11114;BME280;5610;52.154;9.198;2024-01-16T02:59:08;99760.84;;;2.06;100.00
11114;BME280;5610;52.154;9.198;2024-01-16T03:01:54;99769.28;;;2.14;100.00
11114;BME280;5610;52.154;9.198;2024-01-16T03:04:39;99766.34;;;2.22;100.00
11114;BME280;5610;52.154;9.198;2024-01-16T03:07:25;99774.78;;;2.08;100.00
11114;BME280;5610;52.154;9.198;2024-01-16T03:10:10;99770.75;;;2.00;100.00
11114;BME280;5610;52.154;9.198;2024-01-16T03:12:55;99774.53;;;2.14;100.00
11114;BME280;5610;52.154;9.198;2024-01-16T03:15:42;99778.31;;;2.29;100.00
11114;BME280;5610;52.154;9.198;2024-01-16T03:18:28;99779.69;;;2.38;100.00
11114;BME280;5610;52.154;9.198;2024-01-16T03:21:13;99777.91;;;2.38;100.00
11114;BME280;5610;52.154;9.198;2024-01-16T03:23:59;99777.53;;;2.27;100.00
11114;BME280;5610;52.154;9.198;2024-01-16T03:26:43;99785.97;;;2.13;100.00
11114;BME280;5610;52.154;9.198;2024-01-16T03:29:29;99787.78;;;2.11;100.00
11114;BME280;5610;52.154;9.198;2024-01-16T03:32:15;99789.00;;;2.03;100.00
11114;BME280;5610;52.154;9.198;2024-01-16T03:35:01;99798.13;;;1.94;100.00
11114;BME280;5610;52.154;9.198;2024-01-16T03:37:46;99799.81;;;2.17;100.00
11114;BME280;5610;52.154;9.198;2024-01-16T03:40:31;99789.19;;;2.20;100.00
11114;BME280;5610;52.154;9.198;2024-01-16T03:43:18;99790.22;;;2.16;100.00
11114;BME280;5610;52.154;9.198;2024-01-16T03:46:03;99792.16;;;2.12;100.00
11114;BME280;5610;52.154;9.198;2024-01-16T03:48:50;99796.28;;;2.18;100.00
11114;BME280;5610;52.154;9.198;2024-01-16T03:51:35;99789.81;;;2.05;100.00
11114;BME280;5610;52.154;9.198;2024-01-16T03:54:20;99796.28;;;1.96;100.00
11114;BME280;5610;52.154;9.198;2024-01-16T03:57:05;99794.03;;;2.09;100.00
11114;BME280;5610;52.154;9.198;2024-01-16T03:59:50;99792.09;;;1.92;100.00
11114;BME280;5610;52.154;9.198;2024-01-16T04:02:37;99796.03;;;1.80;100.00
11114;BME280;5610;52.154;9.198;2024-01-16T04:05:23;99789.06;;;1.79;100.00
11114;BME280;5610;52.154;9.198;2024-01-16T04:08:09;99788.22;;;1.79;100.00
11114;BME280;5610;52.154;9.198;2024-01-16T04:10:54;99787.97;;;1.63;100.00
11114;BME280;5610;52.154;9.198;2024-01-16T04:13:39;99797.78;;;1.58;100.00
11114;BME280;5610;52.154;9.198;2024-01-16T04:16:24;99805.66;;;1.58;100.00
11114;BME280;5610;52.154;9.198;2024-01-16T04:19:10;99804.50;;;1.65;100.00
11114;BME280;5610;52.154;9.198;2024-01-16T04:21:58;99789.75;;;1.62;100.00
11114;BME280;5610;52.154;9.198;2024-01-16T04:24:43;99797.50;;;1.65;100.00
11114;BME280;5610;52.154;9.198;2024-01-16T04:27:29;99806.00;;;1.72;100.00
11114;BME280;5610;52.154;9.198;2024-01-16T04:30:14;99801.41;;;1.55;100.00
11114;BME280;5610;52.154;9.198;2024-01-16T04:32:59;99805.06;;;1.73;100.00
11114;BME280;5610;52.154;9.198;2024-01-16T04:35:44;99803.69;;;1.86;100.00
11114;BME280;5610;52.154;9.198;2024-01-16T04:38:31;99797.41;;;1.90;100.00
11114;BME280;5610;52.154;9.198;2024-01-16T04:41:17;99810.56;;;1.89;100.00
11114;BME280;5610;52.154;9.198;2024-01-16T04:44:03;99793.16;;;1.86;100.00
11114;BME280;5610;52.154;9.198;2024-01-16T04:46:48;99802.06;;;1.82;100.00
11114;BME280;5610;52.154;9.198;2024-01-16T04:49:33;99791.88;;;1.75;100.00
11114;BME280;5610;52.154;9.198;2024-01-16T04:52:19;99776.41;;;1.67;100.00
11114;BME280;5610;52.154;9.198;2024-01-16T04:55:06;99797.63;;;1.62;100.00
11114;BME280;5610;52.154;9.198;2024-01-16T04:57:51;99802.50;;;1.72;100.00
11114;BME280;5610;52.154;9.198;2024-01-16T05:00:36;99796.28;;;1.74;100.00
11114;BME280;5610;52.154;9.198;2024-01-16T05:03:21;99794.72;;;1.69;100.00
11114;BME280;5610;52.154;9.198;2024-01-16T05:06:12;99801.06;;;1.86;100.00
11114;BME280;5610;52.154;9.198;2024-01-16T05:08:59;99804.16;;;1.74;100.00
11114;BME280;5610;52.154;9.198;2024-01-16T05:11:45;99800.84;;;1.69;100.00
11114;BME280;5610;52.154;9.198;2024-01-16T05:14:30;99803.47;;;1.69;100.00
11114;BME280;5610;52.154;9.198;2024-01-16T05:17:15;99799.25;;;1.65;100.00
11114;BME280;5610;52.154;9.198;2024-01-16T05:20:01;99793.09;;;1.88;100.00
11114;BME280;5610;52.154;9.198;2024-01-16T05:22:47;99807.69;;;1.73;100.00
11114;BME280;5610;52.154;9.198;2024-01-16T05:25:32;99799.13;;;1.68;100.00
11114;BME280;5610;52.154;9.198;2024-01-16T05:28:19;99799.16;;;1.90;100.00
11114;BME280;5610;52.154;9.198;2024-01-16T05:31:04;99800.19;;;1.86;100.00
11114;BME280;5610;52.154;9.198;2024-01-16T05:33:49;99803.91;;;2.02;100.00
11114;BME280;5610;52.154;9.198;2024-01-16T05:36:34;99805.44;;;1.86;100.00
11114;BME280;5610;52.154;9.198;2024-01-16T05:39:20;99798.44;;;1.86;100.00
11114;BME280;5610;52.154;9.198;2024-01-16T05:42:05;99811.31;;;1.92;100.00
11114;BME280;5610;52.154;9.198;2024-01-16T05:44:51;99806.16;;;1.89;100.00
11114;BME280;5610;52.154;9.198;2024-01-16T05:47:38;99810.03;;;1.81;100.00
11114;BME280;5610;52.154;9.198;2024-01-16T05:50:24;99808.31;;;2.02;100.00
11114;BME280;5610;52.154;9.198;2024-01-16T05:53:10;99805.47;;;2.08;100.00
11114;BME280;5610;52.154;9.198;2024-01-16T05:55:55;99806.38;;;2.07;100.00
11114;BME280;5610;52.154;9.198;2024-01-16T05:58:41;99785.84;;;1.95;100.00
11114;BME280;5610;52.154;9.198;2024-01-16T06:01:27;99792.69;;;1.99;100.00
11114;BME280;5610;52.154;9.198;2024-01-16T06:04:13;99799.28;;;2.09;100.00
11114;BME280;5610;52.154;9.198;2024-01-16T06:06:59;99801.78;;;1.90;100.00
11114;BME280;5610;52.154;9.198;2024-01-16T06:09:43;99795.06;;;1.83;100.00
11114;BME280;5610;52.154;9.198;2024-01-16T06:12:29;99783.44;;;1.67;100.00
11114;BME280;5610;52.154;9.198;2024-01-16T06:15:14;99793.84;;;1.70;100.00
11114;BME280;5610;52.154;9.198;2024-01-16T06:18:00;99803.53;;;1.89;100.00
11114;BME280;5610;52.154;9.198;2024-01-16T06:20:46;99795.94;;;1.83;100.00
11114;BME280;5610;52.154;9.198;2024-01-16T06:23:31;99794.03;;;1.87;100.00
11114;BME280;5610;52.154;9.198;2024-01-16T06:26:16;99796.47;;;1.91;100.00
11114;BME280;5610;52.154;9.198;2024-01-16T06:29:01;99800.66;;;1.74;100.00
11114;BME280;5610;52.154;9.198;2024-01-16T06:31:47;99802.44;;;1.73;100.00
11114;BME280;5610;52.154;9.198;2024-01-16T06:34:33;99797.66;;;1.84;100.00
11114;BME280;5610;52.154;9.198;2024-01-16T06:37:18;99805.81;;;1.77;100.00
11114;BME280;5610;52.154;9.198;2024-01-16T06:40:04;99804.91;;;1.54;100.00
11114;BME280;5610;52.154;9.198;2024-01-16T06:42:50;99808.38;;;1.78;100.00
11114;BME280;5610;52.154;9.198;2024-01-16T06:45:35;99804.03;;;1.77;100.00
11114;BME280;5610;52.154;9.198;2024-01-16T06:48:20;99808.47;;;1.75;100.00
11114;BME280;5610;52.154;9.198;2024-01-16T06:51:06;99817.16;;;1.55;100.00
11114;BME280;5610;52.154;9.198;2024-01-16T06:53:54;99816.97;;;1.82;100.00
11114;BME280;5610;52.154;9.198;2024-01-16T06:56:40;99818.28;;;1.72;100.00
11114;BME280;5610;52.154;9.198;2024-01-16T06:59:25;99819.81;;;1.77;100.00
11114;BME280;5610;52.154;9.198;2024-01-16T07:02:10;99823.78;;;1.87;100.00
11114;BME280;5610;52.154;9.198;2024-01-16T07:04:55;99826.41;;;1.87;100.00
11114;BME280;5610;52.154;9.198;2024-01-16T07:07:42;99831.31;;;1.73;100.00
11114;BME280;5610;52.154;9.198;2024-01-16T07:10:27;99824.00;;;1.81;100.00
11114;BME280;5610;52.154;9.198;2024-01-16T07:13:12;99819.00;;;1.75;100.00
11114;BME280;5610;52.154;9.198;2024-01-16T07:15:58;99838.00;;;1.82;100.00
11114;BME280;5610;52.154;9.198;2024-01-16T07:18:44;99841.72;;;1.53;100.00
11114;BME280;5610;52.154;9.198;2024-01-16T07:21:29;99839.72;;;1.59;100.00
11114;BME280;5610;52.154;9.198;2024-01-16T07:24:17;99827.09;;;1.69;100.00
11114;BME280;5610;52.154;9.198;2024-01-16T07:27:02;99840.00;;;1.75;100.00
11114;BME280;5610;52.154;9.198;2024-01-16T07:29:47;99831.81;;;1.83;100.00
11114;BME280;5610;52.154;9.198;2024-01-16T07:32:32;99834.53;;;1.58;100.00
11114;BME280;5610;52.154;9.198;2024-01-16T07:35:18;99834.81;;;1.74;100.00
11114;BME280;5610;52.154;9.198;2024-01-16T07:38:03;99835.28;;;1.85;100.00
11114;BME280;5610;52.154;9.198;2024-01-16T07:40:49;99836.97;;;1.86;100.00
11114;BME280;5610;52.154;9.198;2024-01-16T07:43:35;99839.13;;;1.98;100.00
11114;BME280;5610;52.154;9.198;2024-01-16T07:46:20;99843.53;;;1.98;100.00
11114;BME280;5610;52.154;9.198;2024-01-16T07:49:05;99844.09;;;2.28;100.00
11114;BME280;5610;52.154;9.198;2024-01-16T07:51:50;99840.69;;;2.24;100.00
11114;BME280;5610;52.154;9.198;2024-01-16T07:54:35;99838.44;;;2.15;100.00
11114;BME280;5610;52.154;9.198;2024-01-16T07:57:22;99848.84;;;2.40;100.00
11114;BME280;5610;52.154;9.198;2024-01-16T08:00:08;99853.19;;;2.41;100.00
11114;BME280;5610;52.154;9.198;2024-01-16T08:02:55;99854.09;;;2.18;100.00
11114;BME280;5610;52.154;9.198;2024-01-16T08:05:41;99863.34;;;2.28;100.00
11114;BME280;5610;52.154;9.198;2024-01-16T08:08:26;99857.03;;;2.32;100.00
11114;BME280;5610;52.154;9.198;2024-01-16T08:11:12;99864.78;;;2.57;100.00
11114;BME280;5610;52.154;9.198;2024-01-16T08:13:59;99870.47;;;2.68;100.00
11114;BME280;5610;52.154;9.198;2024-01-16T08:16:44;99864.25;;;2.49;100.00
11114;BME280;5610;52.154;9.198;2024-01-16T08:19:30;99866.38;;;2.61;100.00
11114;BME280;5610;52.154;9.198;2024-01-16T08:22:16;99869.13;;;2.36;100.00
11114;BME280;5610;52.154;9.198;2024-01-16T08:25:02;99871.53;;;2.42;100.00
11114;BME280;5610;52.154;9.198;2024-01-16T08:27:49;99869.19;;;2.57;100.00
11114;BME280;5610;52.154;9.198;2024-01-16T08:30:35;99868.28;;;2.36;100.00
11114;BME280;5610;52.154;9.198;2024-01-16T08:33:20;99868.66;;;2.48;100.00
11114;BME280;5610;52.154;9.198;2024-01-16T08:36:06;99866.06;;;2.69;100.00
11114;BME280;5610;52.154;9.198;2024-01-16T08:38:51;99870.72;;;2.62;100.00
11114;BME280;5610;52.154;9.198;2024-01-16T08:41:36;99871.91;;;2.54;100.00
11114;BME280;5610;52.154;9.198;2024-01-16T08:44:21;99864.84;;;2.56;100.00
11114;BME280;5610;52.154;9.198;2024-01-16T08:47:08;99866.94;;;2.47;100.00
11114;BME280;5610;52.154;9.198;2024-01-16T08:49:53;99868.47;;;2.73;100.00
11114;BME280;5610;52.154;9.198;2024-01-16T08:52:38;99868.41;;;2.95;100.00
11114;BME280;5610;52.154;9.198;2024-01-16T08:55:24;99870.28;;;2.93;100.00
11114;BME280;5610;52.154;9.198;2024-01-16T08:58:09;99861.38;;;2.96;100.00
11114;BME280;5610;52.154;9.198;2024-01-16T09:00:54;99872.72;;;3.18;100.00
11114;BME280;5610;52.154;9.198;2024-01-16T09:03:41;99876.19;;;3.39;100.00
11114;BME280;5610;52.154;9.198;2024-01-16T09:06:27;99869.50;;;3.51;100.00
11114;BME280;5610;52.154;9.198;2024-01-16T09:09:12;99869.28;;;2.96;100.00
11114;BME280;5610;52.154;9.198;2024-01-16T09:11:59;99870.94;;;3.19;100.00
11114;BME280;5610;52.154;9.198;2024-01-16T09:14:45;99865.31;;;3.47;100.00
11114;BME280;5610;52.154;9.198;2024-01-16T09:17:30;99862.13;;;3.78;100.00
11114;BME280;5610;52.154;9.198;2024-01-16T09:20:17;99861.28;;;3.77;100.00
11114;BME280;5610;52.154;9.198;2024-01-16T09:23:02;99861.13;;;3.80;100.00
11114;BME280;5610;52.154;9.198;2024-01-16T09:25:47;99868.47;;;3.74;100.00
11114;BME280;5610;52.154;9.198;2024-01-16T09:28:32;99861.19;;;3.79;100.00
11114;BME280;5610;52.154;9.198;2024-01-16T09:31:18;99861.78;;;4.04;100.00
11114;BME280;5610;52.154;9.198;2024-01-16T09:34:03;99866.91;;;3.89;100.00
11114;BME280;5610;52.154;9.198;2024-01-16T09:36:50;99859.28;;;3.64;100.00
11114;BME280;5610;52.154;9.198;2024-01-16T09:39:35;99870.31;;;3.91;100.00
11114;BME280;5610;52.154;9.198;2024-01-16T09:42:22;99869.47;;;3.71;100.00
11114;BME280;5610;52.154;9.198;2024-01-16T09:45:09;99870.06;;;3.57;100.00
11114;BME280;5610;52.154;9.198;2024-01-16T09:47:54;99866.13;;;4.05;100.00
11114;BME280;5610;52.154;9.198;2024-01-16T09:50:41;99864.97;;;4.11;100.00
11114;BME280;5610;52.154;9.198;2024-01-16T09:53:27;99871.19;;;4.10;100.00
11114;BME280;5610;52.154;9.198;2024-01-16T09:56:14;99871.69;;;4.35;100.00
11114;BME280;5610;52.154;9.198;2024-01-16T09:59:05;99872.13;;;4.09;100.00
11114;BME280;5610;52.154;9.198;2024-01-16T10:01:51;99872.69;;;4.52;100.00
11114;BME280;5610;52.154;9.198;2024-01-16T10:04:38;99868.06;;;4.74;100.00
11114;BME280;5610;52.154;9.198;2024-01-16T10:07:25;99867.25;;;4.72;100.00
11114;BME280;5610;52.154;9.198;2024-01-16T10:10:13;99872.16;;;4.26;100.00
11114;BME280;5610;52.154;9.198;2024-01-16T10:12:58;99882.13;;;4.38;100.00
11114;BME280;5610;52.154;9.198;2024-01-16T10:15:44;99889.00;;;4.60;100.00
11114;BME280;5610;52.154;9.198;2024-01-16T10:18:30;99872.44;;;5.43;100.00
11114;BME280;5610;52.154;9.198;2024-01-16T10:21:20;99885.72;;;5.74;100.00
11114;BME280;5610;52.154;9.198;2024-01-16T10:24:11;99881.75;;;5.99;100.00
11114;BME280;5610;52.154;9.198;2024-01-16T10:27:01;99887.00;;;5.67;100.00
11114;BME280;5610;52.154;9.198;2024-01-16T10:29:58;99890.03;;;5.09;100.00
11114;BME280;5610;52.154;9.198;2024-01-16T10:32:43;99885.25;;;5.33;100.00
11114;BME280;5610;52.154;9.198;2024-01-16T10:35:28;99887.69;;;5.20;100.00
11114;BME280;5610;52.154;9.198;2024-01-16T10:38:20;99889.06;;;4.58;100.00
11114;BME280;5610;52.154;9.198;2024-01-16T10:41:10;99889.41;;;4.14;100.00
11114;BME280;5610;52.154;9.198;2024-01-16T10:44:04;99891.78;;;4.02;100.00
11114;BME280;5610;52.154;9.198;2024-01-16T10:46:50;99898.47;;;4.09;100.00
11114;BME280;5610;52.154;9.198;2024-01-16T10:49:36;99893.91;;;4.31;100.00
11114;BME280;5610;52.154;9.198;2024-01-16T10:52:26;99888.00;;;3.89;100.00
11114;BME280;5610;52.154;9.198;2024-01-16T10:55:18;99899.09;;;4.14;100.00
11114;BME280;5610;52.154;9.198;2024-01-16T10:58:05;99893.03;;;3.93;100.00
11114;BME280;5610;52.154;9.198;2024-01-16T11:00:54;99891.72;;;3.64;100.00
11114;BME280;5610;52.154;9.198;2024-01-16T11:03:46;99881.19;;;3.64;100.00
11114;BME280;5610;52.154;9.198;2024-01-16T11:06:32;99887.19;;;3.68;100.00
11114;BME280;5610;52.154;9.198;2024-01-16T11:09:17;99897.47;;;3.93;100.00
11114;BME280;5610;52.154;9.198;2024-01-16T11:12:03;99878.22;;;3.72;100.00
11114;BME280;5610;52.154;9.198;2024-01-16T11:14:51;99878.13;;;3.73;100.00
11114;BME280;5610;52.154;9.198;2024-01-16T11:17:38;99877.16;;;4.13;100.00
11114;BME280;5610;52.154;9.198;2024-01-16T11:20:24;99875.88;;;4.03;100.00
11114;BME280;5610;52.154;9.198;2024-01-16T11:23:11;99881.06;;;3.86;100.00
11114;BME280;5610;52.154;9.198;2024-01-16T11:25:57;99884.44;;;3.90;100.00
11114;BME280;5610;52.154;9.198;2024-01-16T11:28:43;99869.75;;;4.03;100.00
11114;BME280;5610;52.154;9.198;2024-01-16T11:31:30;99876.59;;;3.88;100.00
11114;BME280;5610;52.154;9.198;2024-01-16T11:34:52;99876.53;;;3.90;100.00
11114;BME280;5610;52.154;9.198;2024-01-16T11:37:41;99881.22;;;3.83;100.00
11114;BME280;5610;52.154;9.198;2024-01-16T11:40:32;99882.72;;;3.70;100.00
11114;BME280;5610;52.154;9.198;2024-01-16T11:43:36;99879.28;;;3.68;100.00
11114;BME280;5610;52.154;9.198;2024-01-16T11:46:24;99888.25;;;3.64;100.00
11114;BME280;5610;52.154;9.198;2024-01-16T11:49:30;99877.50;;;3.87;100.00
11114;BME280;5610;52.154;9.198;2024-01-16T11:52:39;99881.03;;;3.48;100.00
11114;BME280;5610;52.154;9.198;2024-01-16T11:55:25;99879.34;;;3.47;100.00
11114;BME280;5610;52.154;9.198;2024-01-16T11:58:34;99886.13;;;3.53;100.00
11114;BME280;5610;52.154;9.198;2024-01-16T12:01:26;99890.09;;;3.62;100.00
11114;BME280;5610;52.154;9.198;2024-01-16T12:04:14;99889.69;;;3.71;100.00
11114;BME280;5610;52.154;9.198;2024-01-16T12:07:03;99886.28;;;3.69;100.00
11114;BME280;5610;52.154;9.198;2024-01-16T12:09:48;99886.72;;;3.39;100.00
11114;BME280;5610;52.154;9.198;2024-01-16T12:12:34;99889.19;;;3.63;100.00
11114;BME280;5610;52.154;9.198;2024-01-16T12:15:20;99883.09;;;3.81;100.00
11114;BME280;5610;52.154;9.198;2024-01-16T12:18:05;99879.38;;;3.85;100.00
11114;BME280;5610;52.154;9.198;2024-01-16T12:20:51;99880.72;;;3.94;100.00
11114;BME280;5610;52.154;9.198;2024-01-16T12:23:38;99865.78;;;3.75;100.00
11114;BME280;5610;52.154;9.198;2024-01-16T12:26:23;99875.03;;;3.84;100.00
11114;BME280;5610;52.154;9.198;2024-01-16T12:29:09;99870.31;;;3.72;100.00
11114;BME280;5610;52.154;9.198;2024-01-16T12:32:04;99879.91;;;3.54;100.00
11114;BME280;5610;52.154;9.198;2024-01-16T12:34:50;99877.88;;;3.61;100.00
11114;BME280;5610;52.154;9.198;2024-01-16T12:37:35;99879.03;;;3.74;100.00
11114;BME280;5610;52.154;9.198;2024-01-16T12:40:21;99869.34;;;3.74;100.00
11114;BME280;5610;52.154;9.198;2024-01-16T12:43:07;99870.63;;;3.45;100.00
11114;BME280;5610;52.154;9.198;2024-01-16T12:45:56;99862.44;;;3.51;100.00
11114;BME280;5610;52.154;9.198;2024-01-16T12:48:42;99865.69;;;3.38;100.00
11114;BME280;5610;52.154;9.198;2024-01-16T12:51:27;99856.22;;;3.54;100.00
11114;BME280;5610;52.154;9.198;2024-01-16T12:54:14;99843.28;;;3.29;100.00
11114;BME280;5610;52.154;9.198;2024-01-16T12:57:00;99848.94;;;3.59;100.00
11114;BME280;5610;52.154;9.198;2024-01-16T12:59:46;99843.25;;;3.87;100.00
11114;BME280;5610;52.154;9.198;2024-01-16T13:02:32;99844.81;;;3.91;100.00
11114;BME280;5610;52.154;9.198;2024-01-16T13:05:18;99837.56;;;3.77;100.00
11114;BME280;5610;52.154;9.198;2024-01-16T13:08:04;99829.66;;;3.77;100.00
11114;BME280;5610;52.154;9.198;2024-01-16T13:11:01;99836.69;;;3.58;100.00
11114;BME280;5610;52.154;9.198;2024-01-16T13:14:00;99839.44;;;3.36;100.00
11114;BME280;5610;52.154;9.198;2024-01-16T13:16:47;99835.38;;;3.29;100.00
11114;BME280;5610;52.154;9.198;2024-01-16T13:19:32;99836.97;;;3.33;100.00
11114;BME280;5610;52.154;9.198;2024-01-16T13:22:18;99824.31;;;3.41;100.00
11114;BME280;5610;52.154;9.198;2024-01-16T13:25:04;99834.66;;;3.25;100.00
11114;BME280;5610;52.154;9.198;2024-01-16T13:27:50;99828.84;;;3.38;100.00
11114;BME280;5610;52.154;9.198;2024-01-16T13:30:36;99830.34;;;3.04;100.00
11114;BME280;5610;52.154;9.198;2024-01-16T13:33:23;99819.56;;;3.10;100.00
11114;BME280;5610;52.154;9.198;2024-01-16T13:36:11;99816.78;;;3.13;100.00
11114;BME280;5610;52.154;9.198;2024-01-16T13:38:56;99811.75;;;3.27;100.00
11114;BME280;5610;52.154;9.198;2024-01-16T13:41:42;99809.72;;;3.53;100.00
11114;BME280;5610;52.154;9.198;2024-01-16T13:44:27;99817.84;;;3.48;100.00
11114;BME280;5610;52.154;9.198;2024-01-16T13:47:15;99813.47;;;3.28;100.00
11114;BME280;5610;52.154;9.198;2024-01-16T13:50:03;99803.09;;;3.44;100.00
11114;BME280;5610;52.154;9.198;2024-01-16T13:52:48;99793.69;;;3.57;100.00
11114;BME280;5610;52.154;9.198;2024-01-16T13:55:34;99802.59;;;3.36;100.00
11114;BME280;5610;52.154;9.198;2024-01-16T13:58:19;99802.28;;;3.23;100.00
11114;BME280;5610;52.154;9.198;2024-01-16T14:01:04;99794.31;;;3.44;100.00
11114;BME280;5610;52.154;9.198;2024-01-16T14:03:50;99800.63;;;3.60;100.00
11114;BME280;5610;52.154;9.198;2024-01-16T14:06:35;99795.81;;;3.30;100.00
11114;BME280;5610;52.154;9.198;2024-01-16T14:09:20;99790.88;;;3.23;100.00
11114;BME280;5610;52.154;9.198;2024-01-16T14:12:06;99801.13;;;3.10;100.00
11114;BME280;5610;52.154;9.198;2024-01-16T14:14:52;99798.88;;;3.01;100.00
11114;BME280;5610;52.154;9.198;2024-01-16T14:17:37;99801.06;;;2.91;100.00
11114;BME280;5610;52.154;9.198;2024-01-16T14:20:25;99787.41;;;2.83;100.00
11114;BME280;5610;52.154;9.198;2024-01-16T14:23:10;99798.97;;;2.79;100.00
11114;BME280;5610;52.154;9.198;2024-01-16T14:25:56;99790.16;;;2.80;100.00
11114;BME280;5610;52.154;9.198;2024-01-16T14:28:41;99799.38;;;2.70;100.00
11114;BME280;5610;52.154;9.198;2024-01-16T14:31:26;99799.69;;;2.62;100.00
11114;BME280;5610;52.154;9.198;2024-01-16T14:34:12;99798.28;;;2.33;100.00
11114;BME280;5610;52.154;9.198;2024-01-16T14:36:59;99792.94;;;2.14;100.00
11114;BME280;5610;52.154;9.198;2024-01-16T14:39:44;99794.03;;;2.09;100.00
11114;BME280;5610;52.154;9.198;2024-01-16T14:42:29;99813.09;;;2.14;100.00
11114;BME280;5610;52.154;9.198;2024-01-16T14:45:18;99809.06;;;2.27;100.00
11114;BME280;5610;52.154;9.198;2024-01-16T14:48:04;99804.16;;;2.18;100.00
11114;BME280;5610;52.154;9.198;2024-01-16T14:50:49;99808.69;;;2.14;100.00
11114;BME280;5610;52.154;9.198;2024-01-16T14:53:37;99808.22;;;2.27;100.00